createdAt,value
2023-06-26T00:00:12.550Z,5.25
2023-06-26T00:03:16.271Z,5.25
2023-06-26T00:06:18.611Z,5.80
2023-06-26T00:09:20.953Z,5.97
2023-06-26T00:12:23.157Z,5.07
2023-06-26T00:15:25.551Z,5.78
2023-06-26T00:18:27.825Z,5.72
2023-06-26T00:21:30.041Z,4.72
2023-06-26T00:24:32.236Z,4.97
2023-06-26T00:27:34.641Z,5.83
2023-06-26T00:30:37.201Z,5.10
2023-06-26T00:33:39.673Z,5.18
2023-06-26T00:36:44.622Z,5.85
2023-06-26T00:39:47.008Z,5.72
2023-06-26T00:42:49.408Z,5.30
2023-06-26T00:45:51.725Z,6.13
2023-06-26T00:48:55.400Z,5.63
2023-06-26T00:51:57.922Z,5.65
2023-06-26T00:55:01.122Z,6.05
2023-06-26T00:58:03.711Z,5.90
2023-06-26T01:01:09.959Z,6.03
2023-06-26T01:04:18.947Z,6.00
2023-06-26T01:07:22.262Z,6.20
2023-06-26T01:10:25.200Z,6.30
2023-06-26T01:13:30.081Z,6.30
2023-06-26T01:16:32.596Z,6.10
2023-06-26T01:19:35.248Z,6.55
2023-06-26T01:23:03.645Z,6.78
2023-06-26T01:26:09.712Z,6.32
2023-06-26T01:29:12.960Z,6.30
2023-06-26T01:32:15.183Z,6.78
2023-06-26T01:35:17.550Z,7.43
2023-06-26T01:38:21.668Z,7.05
2023-06-26T01:41:24.106Z,7.20
2023-06-26T01:44:30.538Z,7.07
2023-06-26T01:47:34.687Z,6.68
2023-06-26T01:50:38.907Z,6.47
2023-06-26T01:53:46.498Z,6.93
2023-06-26T01:56:51.436Z,7.05
2023-06-26T01:59:56.660Z,7.40
2023-06-26T02:02:59.345Z,7.72
2023-06-26T02:06:01.661Z,7.20
2023-06-26T02:09:04.751Z,7.63
2023-06-26T02:12:07.932Z,7.63
2023-06-26T02:15:12.826Z,7.33
2023-06-26T02:18:15.730Z,7.63
2023-06-26T02:21:18.073Z,7.63
2023-06-26T02:24:20.446Z,7.43
2023-06-26T02:27:22.706Z,7.75
2023-06-26T02:30:24.996Z,7.37
2023-06-26T02:33:27.291Z,7.50
2023-06-26T02:36:29.527Z,7.90
2023-06-26T02:39:31.760Z,7.18
2023-06-26T02:42:35.643Z,7.10
2023-06-26T02:45:37.934Z,6.97
2023-06-26T02:48:40.255Z,7.07
2023-06-26T02:51:42.638Z,7.38
2023-06-26T02:54:51.451Z,7.80
2023-06-26T02:57:53.740Z,8.40
2023-06-26T03:00:57.690Z,8.20
2023-06-26T03:04:01.759Z,8.20
2023-06-26T03:07:04.991Z,8.30
2023-06-26T03:10:08.264Z,7.60
2023-06-26T03:13:10.566Z,8.30
2023-06-26T03:16:13.159Z,8.53
2023-06-26T03:19:15.698Z,8.02
2023-06-26T03:22:37.932Z,9.52
2023-06-26T03:25:40.297Z,8.43
2023-06-26T03:29:00.840Z,7.80
2023-06-26T03:32:03.554Z,8.63
2023-06-26T03:35:07.179Z,8.75
2023-06-26T03:38:12.737Z,7.85
2023-06-26T03:41:17.252Z,8.15
2023-06-26T03:44:19.488Z,8.80
2023-06-26T03:47:24.162Z,8.07
2023-06-26T03:50:26.610Z,8.00
2023-06-26T03:53:28.875Z,8.27
2023-06-26T03:56:31.235Z,7.93
2023-06-26T03:59:33.529Z,7.82
2023-06-26T04:02:36.410Z,8.00
2023-06-26T04:05:38.899Z,8.20
2023-06-26T04:08:41.298Z,7.53
2023-06-26T04:11:43.605Z,8.02
2023-06-26T04:14:45.856Z,8.25
2023-06-26T04:17:48.278Z,7.90
2023-06-26T04:21:12.998Z,6.25
2023-06-26T04:24:15.894Z,6.13
2023-06-26T04:27:19.096Z,5.55
2023-06-26T04:30:21.380Z,5.30
2023-06-26T04:33:24.581Z,4.93
2023-06-26T04:36:29.899Z,5.10
2023-06-26T04:39:32.161Z,5.22
2023-06-26T04:42:34.422Z,5.40
2023-06-26T04:45:37.160Z,5.00
2023-06-26T04:48:39.484Z,5.20
2023-06-26T04:51:41.830Z,5.07
2023-06-26T04:54:44.118Z,4.72
2023-06-26T04:57:46.776Z,4.95
2023-06-26T05:00:49.432Z,5.10
2023-06-26T05:03:51.791Z,4.80
2023-06-26T05:06:54.128Z,5.10
2023-06-26T05:09:56.403Z,4.80
2023-06-26T05:12:58.659Z,4.43
2023-06-26T05:16:01.151Z,4.72
2023-06-26T05:19:03.467Z,5.23
2023-06-26T05:22:08.789Z,5.55
2023-06-26T05:25:12.151Z,5.88
2023-06-26T05:28:16.675Z,6.03
2023-06-26T05:31:19.546Z,5.50
2023-06-26T05:34:26.817Z,5.40
2023-06-26T05:37:29.877Z,5.10
2023-06-26T05:40:32.342Z,4.70
2023-06-26T05:43:35.513Z,4.90
2023-06-26T05:46:42.489Z,5.15
2023-06-26T05:49:45.248Z,4.83
2023-06-26T05:52:47.920Z,5.10
2023-06-26T05:55:50.560Z,4.32
2023-06-26T05:58:53.452Z,4.65
2023-06-26T06:01:56.028Z,4.65
2023-06-26T06:04:59.329Z,4.50
2023-06-26T06:08:01.777Z,4.30
2023-06-26T06:11:04.338Z,4.15
2023-06-26T06:14:06.608Z,4.47
2023-06-26T06:17:08.860Z,4.20
2023-06-26T06:20:11.496Z,4.10
2023-06-26T06:23:13.744Z,3.53
2023-06-26T06:26:15.970Z,3.55
2023-06-26T06:29:20.170Z,3.72
2023-06-26T06:32:22.504Z,3.88
2023-06-26T06:35:28.133Z,3.93
2023-06-26T06:38:32.611Z,4.18
2023-06-26T06:41:37.238Z,4.10
2023-06-26T06:44:42.545Z,4.03
2023-06-26T06:47:46.538Z,4.20
2023-06-26T06:50:49.353Z,4.30
2023-06-26T06:53:51.671Z,4.28
2023-06-26T06:56:53.952Z,4.28
2023-06-26T06:59:56.552Z,4.72
2023-06-26T07:02:59.181Z,4.40
2023-06-26T07:06:01.723Z,4.13
2023-06-26T07:09:04.229Z,4.13
2023-06-26T07:12:06.790Z,4.35
2023-06-26T07:15:09.508Z,4.10
2023-06-26T07:18:11.971Z,4.40
2023-06-26T07:21:14.389Z,4.53
2023-06-26T07:24:17.728Z,4.47
2023-06-26T07:27:22.002Z,4.90
2023-06-26T07:30:25.912Z,4.40
2023-06-26T07:33:29.414Z,4.63
2023-06-26T07:36:32.053Z,4.40
2023-06-26T07:39:34.786Z,4.55
2023-06-26T07:42:37.630Z,4.72
2023-06-26T07:45:39.886Z,4.50
2023-06-26T07:48:42.121Z,4.93
2023-06-26T07:51:44.385Z,4.20
2023-06-26T07:54:47.703Z,5.10
2023-06-26T07:57:51.587Z,4.75
2023-06-26T08:00:53.860Z,4.70
2023-06-26T08:03:56.318Z,4.90
2023-06-26T08:06:59.947Z,4.60
2023-06-26T08:10:02.667Z,4.82
2023-06-26T08:13:05.074Z,5.18
2023-06-26T08:16:07.442Z,5.32
2023-06-26T08:19:11.372Z,4.93
2023-06-26T08:22:14.669Z,5.30
2023-06-26T08:25:18.092Z,5.10
2023-06-26T08:28:21.685Z,4.95
2023-06-26T08:31:25.327Z,5.03
2023-06-26T08:34:28.998Z,5.32
2023-06-26T08:37:34.166Z,5.67
2023-06-26T08:40:39.224Z,5.43
2023-06-26T08:43:43.604Z,5.28
2023-06-26T08:46:47.479Z,4.75
2023-06-26T08:50:01.473Z,5.03
2023-06-26T08:53:45.209Z,4.60
2023-06-26T08:56:50.045Z,5.00
2023-06-26T08:59:54.256Z,5.10
2023-06-26T09:02:58.576Z,4.72
2023-06-26T09:06:01.670Z,5.88
2023-06-26T09:09:05.484Z,5.20
2023-06-26T09:12:10.942Z,5.03
2023-06-26T09:15:16.502Z,4.97
2023-06-26T09:18:25.636Z,5.18
2023-06-26T09:21:31.388Z,5.05
2023-06-26T09:24:34.143Z,5.00
2023-06-26T09:27:37.474Z,5.15
2023-06-26T09:30:40.370Z,5.18
2023-06-26T09:33:44.059Z,5.25
2023-06-26T09:36:54.292Z,4.97
2023-06-26T09:39:56.690Z,5.20
2023-06-26T09:43:06.492Z,5.10
2023-06-26T09:46:09.190Z,5.40
2023-06-26T09:49:12.676Z,5.25
2023-06-26T09:52:18.627Z,5.07
2023-06-26T09:55:22.856Z,5.10
2023-06-26T09:58:25.687Z,5.10
2023-06-26T10:01:28.642Z,5.43
2023-06-26T10:04:36.364Z,5.75
2023-06-26T10:07:39.561Z,5.10
2023-06-26T10:10:44.687Z,4.80
2023-06-26T10:17:08.691Z,5.22
2023-06-26T10:20:11.700Z,4.70
2023-06-26T10:23:15.360Z,5.45
2023-06-26T10:26:18.413Z,4.83
2023-06-26T10:29:24.957Z,5.15
2023-06-26T10:32:27.914Z,5.13
2023-06-26T10:35:31.849Z,4.88
2023-06-26T10:38:53.020Z,5.05
2023-06-26T10:42:04.943Z,4.93
2023-06-26T10:45:25.431Z,5.00
2023-06-26T10:48:30.689Z,5.05
2023-06-26T10:51:35.831Z,4.60
2023-06-26T10:54:38.517Z,4.72
2023-06-26T10:57:45.468Z,4.60
2023-06-26T11:00:51.565Z,5.05
2023-06-26T11:04:09.603Z,5.25
2023-06-26T11:07:23.532Z,5.15
2023-06-26T11:10:26.922Z,4.90
2023-06-26T11:13:36.903Z,4.60
2023-06-26T11:16:43.990Z,4.72
2023-06-26T11:19:51.195Z,5.05
2023-06-26T11:22:54.895Z,4.60
2023-06-26T11:25:58.605Z,4.80
2023-06-26T11:29:02.206Z,4.50
2023-06-26T11:32:07.471Z,4.50
2023-06-26T11:35:11.471Z,4.80
2023-06-26T11:38:15.078Z,4.47
2023-06-26T11:41:19.734Z,4.47
2023-06-26T11:44:31.603Z,4.43
2023-06-26T11:47:36.472Z,4.60
2023-06-26T11:50:40.735Z,4.78
2023-06-26T11:53:46.025Z,4.32
2023-06-26T11:57:01.344Z,4.40
2023-06-26T12:00:15.634Z,4.30
2023-06-26T12:03:19.225Z,4.10
2023-06-26T12:06:22.768Z,4.22
2023-06-26T12:09:31.583Z,4.35
2023-06-26T12:12:35.388Z,4.90
2023-06-26T12:15:42.691Z,4.00
2023-06-26T12:18:46.183Z,4.40
2023-06-26T12:21:55.745Z,4.30
2023-06-26T12:25:02.502Z,4.60
2023-06-26T12:28:19.959Z,4.20
2023-06-26T12:31:29.003Z,5.30
2023-06-26T12:34:39.481Z,4.50
2023-06-26T12:37:45.040Z,4.55
2023-06-26T12:40:47.977Z,4.03
2023-06-26T12:43:51.560Z,4.40
2023-06-26T12:47:04.079Z,4.53
2023-06-26T12:50:07.481Z,5.05
2023-06-26T12:53:11.110Z,5.10
2023-06-26T12:56:14.706Z,4.22
2023-06-26T12:59:19.452Z,4.90
2023-06-26T13:02:23.121Z,4.40
2023-06-26T13:05:27.892Z,4.25
2023-06-26T13:08:35.067Z,4.93
2023-06-26T13:11:43.181Z,4.75
2023-06-26T13:14:45.766Z,4.72
2023-06-26T13:17:52.540Z,4.40
2023-06-26T13:20:55.125Z,4.70
2023-06-26T13:23:57.769Z,4.40
2023-06-26T13:27:00.384Z,4.70
2023-06-26T13:30:03.539Z,4.70
2023-06-26T13:33:05.966Z,4.40
2023-06-26T13:36:08.590Z,4.00
2023-06-26T13:39:13.646Z,4.30
2023-06-26T13:42:16.865Z,4.40
2023-06-26T13:48:29.032Z,4.20
2023-06-26T13:51:31.661Z,4.32
2023-06-26T13:54:35.187Z,4.15
2023-06-26T13:57:42.892Z,4.50
2023-06-26T14:00:49.638Z,4.45
2023-06-26T14:03:53.898Z,4.13
2023-06-26T14:06:56.264Z,3.95
2023-06-26T14:09:58.628Z,4.40
2023-06-26T14:13:01.772Z,4.50
2023-06-26T14:16:04.246Z,4.35
2023-06-26T14:19:06.632Z,4.37
2023-06-26T14:22:09.126Z,4.05
2023-06-26T14:25:12.125Z,4.20
2023-06-26T14:28:20.026Z,3.70
2023-06-26T14:31:22.568Z,4.25
2023-06-26T14:34:25.273Z,4.57
2023-06-26T14:37:30.972Z,4.10
2023-06-26T14:40:33.355Z,4.20
2023-06-26T14:43:36.366Z,4.18
2023-06-26T14:46:39.214Z,4.32
2023-06-26T14:49:41.607Z,3.80
2023-06-26T14:52:43.937Z,4.22
2023-06-26T14:55:46.289Z,4.40
2023-06-26T14:58:49.273Z,4.10
2023-06-26T15:01:51.984Z,3.92
2023-06-26T15:04:56.824Z,4.00
2023-06-26T15:07:59.335Z,4.05
2023-06-26T15:11:03.015Z,4.28
2023-06-26T15:14:05.556Z,3.90
2023-06-26T15:17:08.012Z,4.30
2023-06-26T15:20:10.707Z,3.90
2023-06-26T15:23:13.215Z,3.80
2023-06-26T15:26:18.083Z,4.25
2023-06-26T15:29:20.515Z,3.70
2023-06-26T15:32:22.856Z,3.72
2023-06-26T15:35:25.496Z,3.93
2023-06-26T15:38:27.874Z,3.92
2023-06-26T15:41:31.023Z,3.45
2023-06-26T15:44:34.215Z,3.55
2023-06-26T15:47:37.747Z,3.95
2023-06-26T15:50:40.816Z,3.63
2023-06-26T15:53:44.836Z,3.80
2023-06-26T15:56:48.432Z,3.63
2023-06-26T15:59:51.732Z,3.45
2023-06-26T16:02:55.163Z,3.83
2023-06-26T16:05:58.535Z,2.97
2023-06-26T16:09:01.833Z,3.40
2023-06-26T16:12:05.686Z,3.03
2023-06-26T16:15:09.851Z,3.00
2023-06-26T16:18:13.585Z,3.17
2023-06-26T16:21:17.802Z,3.40
2023-06-26T16:24:20.770Z,3.33
2023-06-26T16:27:23.192Z,3.38
2023-06-26T16:30:25.792Z,3.15
2023-06-26T16:33:28.199Z,3.13
2023-06-26T16:36:30.703Z,3.10
2023-06-26T16:39:33.025Z,3.47
2023-06-26T16:42:35.517Z,3.58
2023-06-26T16:45:37.881Z,3.30
2023-06-26T16:48:40.217Z,3.38
2023-06-26T16:51:42.673Z,3.43
2023-06-26T16:54:45.095Z,3.40
2023-06-26T16:57:47.755Z,3.50
2023-06-26T17:00:52.191Z,3.38
2023-06-26T17:03:55.929Z,3.22
2023-06-26T17:06:59.988Z,3.13
2023-06-26T17:10:02.630Z,3.55
2023-06-26T17:13:05.404Z,3.70
2023-06-26T17:16:08.004Z,3.50
2023-06-26T17:19:14.270Z,3.30
2023-06-26T17:22:16.732Z,3.43
2023-06-26T17:25:19.802Z,3.58
2023-06-26T17:28:22.885Z,3.38
2023-06-26T17:31:26.142Z,3.90
2023-06-26T17:34:29.872Z,3.30
2023-06-26T17:37:33.280Z,3.37
2023-06-26T17:40:36.817Z,3.50
2023-06-26T17:43:39.618Z,3.53
2023-06-26T17:46:42.077Z,3.50
2023-06-26T17:49:44.527Z,3.30
2023-06-26T17:52:47.003Z,3.50
2023-06-26T17:55:50.235Z,3.60
2023-06-26T17:58:53.436Z,3.60
2023-06-26T18:01:59.801Z,3.90
2023-06-26T18:05:02.496Z,3.65
2023-06-26T18:08:05.564Z,3.37
2023-06-26T18:11:08.313Z,3.67
2023-06-26T18:14:12.802Z,3.72
2023-06-26T18:17:18.091Z,3.55
2023-06-26T18:20:21.488Z,3.70
2023-06-26T18:23:23.997Z,3.80
2023-06-26T18:26:26.420Z,3.60
2023-06-26T18:29:29.439Z,4.40
2023-06-26T18:32:33.442Z,3.83
2023-06-26T18:35:37.588Z,3.30
2023-06-26T18:38:41.537Z,3.87
2023-06-26T18:41:45.472Z,3.90
2023-06-26T18:44:49.893Z,3.85
2023-06-26T18:47:54.119Z,3.67
2023-06-26T18:50:57.378Z,4.07
2023-06-26T18:54:03.269Z,3.90
2023-06-26T18:57:06.081Z,4.45
2023-06-26T19:00:10.307Z,4.07
2023-06-26T19:03:13.838Z,4.05
2023-06-26T19:06:16.818Z,3.95
2023-06-26T19:09:20.097Z,4.10
2023-06-26T19:12:24.984Z,4.15
2023-06-26T19:15:27.492Z,4.30
2023-06-26T19:18:30.409Z,3.83
2023-06-26T19:21:33.017Z,3.90
2023-06-26T19:24:35.300Z,3.63
2023-06-26T19:27:39.526Z,4.07
2023-06-26T19:30:42.234Z,3.67
2023-06-26T19:33:44.653Z,3.95
2023-06-26T19:36:47.461Z,4.18
2023-06-26T19:39:50.046Z,4.43
2023-06-26T19:42:52.469Z,4.38
2023-06-26T19:45:54.903Z,4.38
2023-06-26T19:49:00.245Z,4.10
2023-06-26T19:52:03.240Z,4.22
2023-06-26T19:55:06.312Z,3.87
2023-06-26T19:58:08.709Z,3.90
2023-06-26T20:01:11.367Z,4.30
2023-06-26T20:04:16.525Z,4.25
2023-06-26T20:07:19.337Z,4.35
2023-06-26T20:10:22.005Z,4.20
2023-06-26T20:13:26.402Z,4.30
2023-06-26T20:16:29.702Z,4.30
2023-06-26T20:19:32.813Z,4.40
2023-06-26T20:22:35.087Z,4.30
2023-06-26T20:25:38.293Z,4.10
2023-06-26T20:28:40.880Z,4.25
2023-06-26T20:31:43.190Z,4.53
2023-06-26T20:34:45.564Z,4.20
2023-06-26T20:37:49.505Z,3.88
2023-06-26T20:40:52.107Z,3.97
2023-06-26T20:43:54.835Z,3.72
2023-06-26T20:46:59.925Z,3.70
2023-06-26T20:50:03.240Z,4.10
2023-06-26T20:53:06.063Z,3.88
2023-06-26T20:56:08.750Z,3.70
2023-06-26T20:59:11.210Z,4.05
2023-06-26T21:02:13.578Z,4.43
2023-06-26T21:05:15.892Z,3.78
2023-06-26T21:08:18.174Z,4.00
2023-06-26T21:11:20.673Z,3.93
2023-06-26T21:14:23.004Z,4.13
2023-06-26T21:17:25.327Z,4.10
2023-06-26T21:20:27.685Z,4.40
2023-06-26T21:23:29.985Z,4.32
2023-06-26T21:26:32.308Z,4.57
2023-06-26T21:29:34.561Z,4.32
2023-06-26T21:32:36.914Z,4.72
2023-06-26T21:35:43.876Z,4.50
2023-06-26T21:38:46.724Z,4.75
2023-06-26T21:41:49.011Z,4.60
2023-06-26T21:44:51.321Z,4.95
2023-06-26T21:47:53.573Z,4.85
2023-06-26T21:50:55.852Z,4.63
2023-06-26T21:53:58.782Z,4.80
2023-06-26T21:57:01.049Z,4.33
2023-06-26T22:00:05.702Z,4.95
2023-06-26T22:03:09.512Z,4.57
2023-06-26T22:06:11.819Z,4.65
2023-06-26T22:09:17.100Z,4.55
2023-06-26T22:12:19.313Z,4.83
2023-06-26T22:15:21.526Z,4.75
2023-06-26T22:18:23.732Z,5.20
2023-06-26T22:21:26.000Z,5.22
2023-06-26T22:24:28.336Z,4.38
2023-06-26T22:27:30.550Z,4.47
2023-06-26T22:30:32.839Z,4.32
2023-06-26T22:33:35.139Z,4.43
2023-06-26T22:36:37.388Z,3.88
2023-06-26T22:39:39.811Z,4.20
2023-06-26T22:42:42.218Z,3.73
2023-06-26T22:45:44.456Z,4.00
2023-06-26T22:48:46.879Z,4.30
2023-06-26T22:51:49.174Z,4.43
2023-06-26T22:54:51.391Z,3.80
2023-06-26T22:57:53.576Z,4.50
2023-06-26T23:01:00.745Z,4.63
2023-06-26T23:04:03.872Z,4.40
2023-06-26T23:07:07.126Z,5.05
2023-06-26T23:10:10.047Z,5.18
2023-06-26T23:13:12.276Z,4.50
2023-06-26T23:16:14.946Z,4.57
2023-06-26T23:19:17.175Z,4.40
2023-06-26T23:22:21.309Z,4.55
2023-06-26T23:25:34.254Z,4.20
2023-06-26T23:28:36.489Z,4.20
2023-06-26T23:31:39.968Z,3.83
2023-06-26T23:34:42.340Z,4.35
2023-06-26T23:37:44.610Z,4.38
2023-06-26T23:40:46.890Z,4.20
2023-06-26T23:43:49.095Z,3.93
2023-06-26T23:46:51.397Z,3.83
2023-06-26T23:49:53.620Z,3.70
2023-06-26T23:52:55.816Z,3.92
2023-06-26T23:55:58.140Z,3.63
2023-06-26T23:59:00.674Z,3.60
